Time;durP1;ratioP1;P1;durP2;ratioP2;P2;SDS_P1;SDS_P2;PMS_P1;PMS_P2;Temp;Humidity;BMP_temperature;BMP_pressure;BME280_temperature;BME280_humidity;BME280_pressure;Samples;Min_cycle;Max_cycle;Signal;HPM_P1;HPM_P2
2022/02/18 00:00:45;;;;;;;;;;;;;;;16.18;41.56;99844.72;4919802;28;127904;-64
2022/02/18 00:03:11;;;;;;;;;;;;;;;16.16;41.50;99838.84;4920897;28;124157;-57
2022/02/18 00:05:37;;;;;;;;;;;;;;;16.16;41.43;99843.47;4931547;28;97995;-57
2022/02/18 00:08:04;;;;;;;;;;;;;;;16.15;41.31;99852.72;4940475;28;128186;-64
2022/02/18 00:10:29;;;;;;;;;;;;;;;16.14;41.53;99846.50;4938426;28;125266;-58
2022/02/18 00:12:55;;;;;;;;;;;;;;;16.11;41.45;99859.91;4939788;28;126518;-64
2022/02/18 00:15:21;;;;;;;;;;;;;;;16.11;41.40;99868.91;4939756;28;117483;-64
2022/02/18 00:17:47;;;;;;;;;;;;;;;16.11;41.83;99859.91;4938745;28;99386;-57
2022/02/18 00:20:13;;;;;;;;;;;;;;;16.09;41.50;99867.59;4938433;28;128169;-64
2022/02/18 00:22:39;;;;;;;;;;;;;;;16.08;41.51;99874.97;4932106;28;116987;-64
2022/02/18 00:25:08;;;;;;;;;;;;;;;16.07;41.49;99880.72;4921115;28;98013;-64
2022/02/18 00:27:35;;;;;;;;;;;;;;;16.04;41.61;99884.09;4921103;28;97937;-57
2022/02/18 00:30:02;;;;;;;;;;;;;;;16.03;41.59;99885.97;4920222;28;97821;-64
2022/02/18 00:32:28;;;;;;;;;;;;;;;16.02;41.70;99883.59;4921087;28;98560;-57
2022/02/18 00:34:54;;;;;;;;;;;;;;;16.00;41.63;99894.78;4920415;28;97913;-57
2022/02/18 00:37:20;;;;;;;;;;;;;;;15.99;41.85;99895.88;4922762;28;98362;-57
2022/02/18 00:39:46;;;;;;;;;;;;;;;15.97;41.67;99889.97;4920776;28;98857;-64
2022/02/18 00:42:12;;;;;;;;;;;;;;;15.97;41.43;99900.84;4920184;28;128249;-57
2022/02/18 00:44:38;;;;;;;;;;;;;;;15.95;41.52;99898.47;4920157;28;116731;-57
2022/02/18 00:47:05;;;;;;;;;;;;;;;15.94;41.36;99902.28;4934886;28;108798;-64
2022/02/18 00:49:31;;;;;;;;;;;;;;;15.94;41.62;99899.56;4939992;28;98172;-64
2022/02/18 00:51:57;;;;;;;;;;;;;;;15.92;41.71;99904.53;4920277;28;126973;-64
2022/02/18 00:54:23;;;;;;;;;;;;;;;15.91;41.54;99892.03;4937923;28;114796;-56
2022/02/18 00:56:50;;;;;;;;;;;;;;;15.91;41.73;99892.03;4939710;28;127894;-57
2022/02/18 00:59:16;;;;;;;;;;;;;;;15.90;41.66;99892.34;4943028;28;97874;-57
2022/02/18 01:01:42;;;;;;;;;;;;;;;15.88;41.78;99889.97;4971743;28;127267;-64
2022/02/18 01:04:08;;;;;;;;;;;;;;;15.87;41.59;99896.50;4943986;28;97775;-57
2022/02/18 01:06:34;;;;;;;;;;;;;;;15.87;41.37;99896.50;4942372;28;116905;-64
2022/02/18 01:09:00;;;;;;;;;;;;;;;15.85;41.83;99901.47;4929256;28;128829;-64
2022/02/18 01:11:26;;;;;;;;;;;;;;;15.85;41.75;99900.66;4923008;28;97924;-57
2022/02/18 01:13:52;;;;;;;;;;;;;;;15.84;41.80;99902.59;4923848;28;97699;-57
2022/02/18 01:16:19;;;;;;;;;;;;;;;15.84;41.57;99913.47;4922305;28;128072;-57
2022/02/18 01:18:45;;;;;;;;;;;;;;;15.83;41.74;99905.59;4937678;28;98687;-63
2022/02/18 01:21:10;;;;;;;;;;;;;;;15.82;41.63;99912.94;4943847;28;97978;-64
2022/02/18 01:23:36;;;;;;;;;;;;;;;15.81;41.66;99924.94;4937795;28;114214;-58
2022/02/18 01:26:03;;;;;;;;;;;;;;;15.80;41.63;99930.69;4941799;28;128776;-57
2022/02/18 01:28:29;;;;;;;;;;;;;;;15.79;41.60;99929.88;4941876;28;124914;-64
2022/02/18 01:30:55;;;;;;;;;;;;;;;15.78;41.46;99920.13;4942260;28;110281;-64
2022/02/18 01:33:21;;;;;;;;;;;;;;;15.77;41.50;99915.03;4942183;28;119572;-57
2022/02/18 01:35:48;;;;;;;;;;;;;;;15.75;41.61;99918.03;4941469;28;126194;-64
2022/02/18 01:38:14;;;;;;;;;;;;;;;15.76;41.36;99932.44;4973490;28;97983;-57
2022/02/18 01:40:40;;;;;;;;;;;;;;;15.74;41.54;99940.91;4928372;28;123695;-63
2022/02/18 01:43:06;;;;;;;;;;;;;;;15.73;41.33;99933.06;4923389;28;112104;-57
2022/02/18 01:45:32;;;;;;;;;;;;;;;15.71;41.55;99928.75;4928926;28;126363;-64
2022/02/18 01:47:58;;;;;;;;;;;;;;;15.69;41.33;99936.41;4941928;28;128734;-57
2022/02/18 01:50:24;;;;;;;;;;;;;;;15.69;41.73;99938.34;4941867;28;123309;-57
2022/02/18 01:52:51;;;;;;;;;;;;;;;15.69;41.19;99949.19;4941460;28;117765;-57
2022/02/18 01:55:18;;;;;;;;;;;;;;;15.67;41.27;99944.06;4941746;28;98745;-57
2022/02/18 01:57:52;;;;;;;;;;;;;;;15.67;41.30;99945.97;4941451;28;120098;-57
2022/02/18 02:00:23;;;;;;;;;;;;;;;15.66;41.30;99952.53;4942636;28;98058;-64
2022/02/18 02:02:49;;;;;;;;;;;;;;;15.66;41.49;99950.63;4935642;28;113387;-64
2022/02/18 02:05:16;;;;;;;;;;;;;;;15.65;41.24;99940.88;4921130;28;125330;-58
2022/02/18 02:07:42;;;;;;;;;;;;;;;15.64;41.51;99928.38;4922541;28;97822;-57
2022/02/18 02:10:08;;;;;;;;;;;;;;;15.65;41.22;99945.50;4923858;28;113521;-57
2022/02/18 02:12:39;;;;;;;;;;;;;;;15.65;41.38;99938.16;4923563;28;97894;-64
2022/02/18 02:15:09;;;;;;;;;;;;;;;15.64;41.58;99930.28;4942950;28;98342;-64
2022/02/18 02:17:35;;;;;;;;;;;;;;;15.62;41.38;99938.75;4941893;28;99599;-57
2022/02/18 02:20:02;;;;;;;;;;;;;;;15.65;41.46;99938.16;4941601;28;104977;-64
2022/02/18 02:22:28;;;;;;;;;;;;;;;15.64;41.38;99950.13;4941759;28;97781;-57
2022/02/18 02:24:54;;;;;;;;;;;;;;;15.65;41.30;99940.06;4940315;28;127900;-57
2022/02/18 02:27:22;;;;;;;;;;;;;;;15.65;41.51;99938.16;4939420;28;98732;-57
2022/02/18 02:29:48;;;;;;;;;;;;;;;15.66;41.50;99939.75;4923318;28;98101;-57
2022/02/18 02:32:14;;;;;;;;;;;;;;;15.66;41.46;99938.97;4922323;28;113375;-64
2022/02/18 02:34:40;;;;;;;;;;;;;;;15.67;41.44;99946.78;4951395;28;98061;-56
2022/02/18 02:37:06;;;;;;;;;;;;;;;15.69;41.19;99947.28;4921393;28;117752;-57
2022/02/18 02:39:33;;;;;;;;;;;;;;;15.70;41.52;99946.16;4922100;28;97868;-63
2022/02/18 02:42:03;;;;;;;;;;;;;;;15.70;41.26;99943.44;4937175;28;97951;-64
2022/02/18 02:44:29;;;;;;;;;;;;;;;15.71;41.18;99945.03;4972510;28;105879;-57
2022/02/18 02:46:55;;;;;;;;;;;;;;;15.72;41.21;99943.16;4940902;28;128976;-57
2022/02/18 02:49:21;;;;;;;;;;;;;;;15.74;41.45;99945.53;4931817;28;98142;-57
2022/02/18 02:51:47;;;;;;;;;;;;;;;15.75;41.38;99949.84;4939152;28;117270;-57
2022/02/18 02:54:13;;;;;;;;;;;;;;;15.74;41.41;99957.19;4942302;28;102366;-64
2022/02/18 02:56:38;;;;;;;;;;;;;;;15.75;41.46;99961.50;4940725;28;128112;-64
2022/02/18 02:59:04;;;;;;;;;;;;;;;15.75;41.37;99956.09;4940961;28;126992;-56
2022/02/18 03:01:30;;;;;;;;;;;;;;;15.75;41.24;99956.09;4940013;28;116556;-57
2022/02/18 03:03:56;;;;;;;;;;;;;;;15.76;41.34;99956.88;4941669;28;99355;-57
2022/02/18 03:06:23;;;;;;;;;;;;;;;15.77;41.51;99963.94;4940225;28;127940;-64
2022/02/18 03:08:48;;;;;;;;;;;;;;;15.76;41.15;99957.72;4933777;28;100177;-57
2022/02/18 03:11:14;;;;;;;;;;;;;;;15.77;41.15;99959.31;4922232;28;98055;-64
2022/02/18 03:13:41;;;;;;;;;;;;;;;15.78;41.13;99951.94;4920953;28;123514;-57
2022/02/18 03:16:07;;;;;;;;;;;;;;;15.80;41.28;99960.56;4921488;28;98788;-64
2022/02/18 03:18:33;;;;;;;;;;;;;;;15.79;40.89;99954.34;4965729;28;99288;-63
2022/02/18 03:20:59;;;;;;;;;;;;;;;15.78;41.13;99951.94;4924474;28;102372;-64
2022/02/18 03:23:25;;;;;;;;;;;;;;;15.79;40.96;99951.63;4921462;28;128788;-57
2022/02/18 03:25:50;;;;;;;;;;;;;;;15.81;41.20;99948.59;4921591;28;98487;-64
2022/02/18 03:28:16;;;;;;;;;;;;;;;15.82;41.08;99953.72;4921160;28;126782;-57
2022/02/18 03:30:42;;;;;;;;;;;;;;;15.81;41.04;99941.25;4921085;28;116571;-57
2022/02/18 03:33:11;;;;;;;;;;;;;;;15.84;41.39;99945.25;4930960;28;97811;-64
2022/02/18 03:35:37;;;;;;;;;;;;;;;15.83;41.06;99946.34;4938557;28;98485;-63
2022/02/18 03:38:03;;;;;;;;;;;;;;;15.84;41.14;99948.78;4922112;28;97907;-63
2022/02/18 03:40:29;;;;;;;;;;;;;;;15.85;41.14;99952.28;4920775;28;117005;-57
2022/02/18 03:42:55;;;;;;;;;;;;;;;15.87;41.10;99964.44;4921738;28;127453;-64
2022/02/18 03:45:21;;;;;;;;;;;;;;;15.88;41.31;99967.97;4921308;28;123092;-56
2022/02/18 03:47:47;;;;;;;;;;;;;;;15.89;41.47;99975.00;4920099;28;128437;-63
2022/02/18 03:50:13;;;;;;;;;;;;;;;15.89;41.40;99977.72;4921096;28;107410;-64
2022/02/18 03:52:38;;;;;;;;;;;;;;;15.90;41.16;99982.03;4920745;28;127501;-63
2022/02/18 03:55:05;;;;;;;;;;;;;;;15.90;41.35;99982.03;4919778;28;128849;-63
2022/02/18 03:57:31;;;;;;;;;;;;;;;15.92;41.34;99986.06;4920554;28;125661;-64
2022/02/18 03:59:57;;;;;;;;;;;;;;;15.92;41.59;100002.38;4920684;28;114805;-57
2022/02/18 04:02:23;;;;;;;;;;;;;;;15.94;41.69;99993.88;4921149;28;98592;-63
2022/02/18 04:04:48;;;;;;;;;;;;;;;15.94;41.31;99991.97;4952414;28;118273;-64
2022/02/18 04:07:14;;;;;;;;;;;;;;;15.95;41.57;99987.31;4920819;28;127282;-64
2022/02/18 04:09:40;;;;;;;;;;;;;;;15.96;41.58;99988.94;4933144;28;116404;-63
2022/02/18 04:12:06;;;;;;;;;;;;;;;15.97;41.69;99995.97;4940020;28;127032;-57
2022/02/18 04:14:32;;;;;;;;;;;;;;;15.98;41.39;99994.84;4940247;28;101974;-56
2022/02/18 04:16:58;;;;;;;;;;;;;;;15.99;41.71;99996.44;4939582;28;128234;-56
2022/02/18 04:19:24;;;;;;;;;;;;;;;15.98;41.58;99989.41;4938402;28;116703;-58
2022/02/18 04:21:50;;;;;;;;;;;;;;;15.99;41.74;99995.66;4939616;28;128384;-57
2022/02/18 04:24:16;;;;;;;;;;;;;;;16.00;41.67;99991.84;4925033;28;127568;-57
2022/02/18 04:26:42;;;;;;;;;;;;;;;15.99;41.49;99984.78;4919090;28;127144;-57
2022/02/18 04:29:09;;;;;;;;;;;;;;;16.01;41.61;99985.28;4921749;28;114940;-64
2022/02/18 04:31:35;;;;;;;;;;;;;;;16.00;41.77;99989.13;4928507;28;99060;-58
2022/02/18 04:34:01;;;;;;;;;;;;;;;16.02;41.59;99997.75;4943464;28;99116;-57
2022/02/18 04:36:27;;;;;;;;;;;;;;;16.02;41.68;100001.25;4941514;28;128132;-57
2022/02/18 04:38:54;;;;;;;;;;;;;;;16.01;41.69;99991.50;4931468;28;115382;-64
2022/02/18 04:41:23;;;;;;;;;;;;;;;16.03;41.54;99999.34;4923965;28;97834;-64
2022/02/18 04:43:49;;;;;;;;;;;;;;;16.03;41.51;100007.50;4925168;28;98336;-57
2022/02/18 04:46:15;;;;;;;;;;;;;;;16.02;41.59;100003.19;4922987;28;127215;-58
2022/02/18 04:48:41;;;;;;;;;;;;;;;16.02;41.67;100005.91;4924196;28;97943;-57
2022/02/18 04:51:06;;;;;;;;;;;;;;;16.02;41.54;100005.91;4923474;28;127574;-57
2022/02/18 04:53:32;;;;;;;;;;;;;;;16.01;41.54;100007.81;4921227;28;128087;-64
2022/02/18 04:55:58;;;;;;;;;;;;;;;16.01;41.61;100013.25;4922878;28;125721;-64
2022/02/18 04:58:24;;;;;;;;;;;;;;;16.00;41.87;100016.31;4934581;28;115300;-57
2022/02/18 05:00:50;;;;;;;;;;;;;;;15.99;41.93;100020.13;4924577;28;98971;-58
2022/02/18 05:03:16;;;;;;;;;;;;;;;15.99;41.77;100012.75;4922435;28;125575;-57
2022/02/18 05:05:42;;;;;;;;;;;;;;;15.99;41.54;100017.41;4922709;28;98664;-57
2022/02/18 05:08:08;;;;;;;;;;;;;;;15.98;41.64;100011.16;4923358;28;104180;-64
2022/02/18 05:10:35;;;;;;;;;;;;;;;15.98;41.71;100007.66;4924916;28;97830;-64
2022/02/18 05:13:00;;;;;;;;;;;;;;;15.96;41.95;100007.97;4922226;28;129130;-64
2022/02/18 05:15:26;;;;;;;;;;;;;;;15.97;41.75;100006.06;4923268;28;126469;-57
2022/02/18 05:17:52;;;;;;;;;;;;;;;15.95;41.83;99999.03;4924460;28;116732;-64
2022/02/18 05:20:18;;;;;;;;;;;;;;;15.95;41.88;99990.03;4922586;28;127580;-56
2022/02/18 05:22:44;;;;;;;;;;;;;;;15.93;42.01;99993.09;4920358;28;125971;-57
2022/02/18 05:25:10;;;;;;;;;;;;;;;15.91;41.87;99992.59;4925420;28;109218;-63
2022/02/18 05:27:36;;;;;;;;;;;;;;;15.92;41.57;99996.13;4936445;28;117393;-64
2022/02/18 05:30:03;;;;;;;;;;;;;;;15.90;41.96;99998.34;4941844;28;97799;-64
2022/02/18 05:32:29;;;;;;;;;;;;;;;15.90;42.03;99998.34;4939302;28;128268;-64
2022/02/18 05:34:55;;;;;;;;;;;;;;;15.89;41.81;99994.03;4937928;28;126652;-57
2022/02/18 05:37:21;;;;;;;;;;;;;;;15.88;41.90;99987.00;4935874;28;98269;-57
2022/02/18 05:39:47;;;;;;;;;;;;;;;15.86;41.79;99984.59;4936465;28;124409;-57
2022/02/18 05:42:13;;;;;;;;;;;;;;;15.86;41.91;99986.50;4938058;28;97984;-57
2022/02/18 05:44:39;;;;;;;;;;;;;;;15.85;41.72;99984.91;4937703;28;123968;-57
2022/02/18 05:47:05;;;;;;;;;;;;;;;15.85;42.01;99987.63;4937321;28;110283;-57
2022/02/18 05:49:31;;;;;;;;;;;;;;;15.83;41.86;99981.69;4931538;28;123155;-57
2022/02/18 05:51:57;;;;;;;;;;;;;;;15.83;41.66;99989.84;4938426;28;127578;-57
2022/02/18 05:54:23;;;;;;;;;;;;;;;15.82;41.92;99997.19;4937159;28;104256;-57
2022/02/18 05:56:51;;;;;;;;;;;;;;;15.81;41.94;99998.31;4937706;28;118095;-57
2022/02/18 05:59:18;;;;;;;;;;;;;;;15.80;41.80;99991.28;4933051;28;98144;-57
2022/02/18 06:01:44;;;;;;;;;;;;;;;15.81;42.07;99994.81;4937646;28;127456;-57
2022/02/18 06:04:11;;;;;;;;;;;;;;;15.81;42.13;99992.09;4930514;28;98252;-57
2022/02/18 06:06:40;;;;;;;;;;;;;;;15.81;41.96;99992.88;4932731;28;97895;-57
2022/02/18 06:09:06;;;;;;;;;;;;;;;15.81;41.72;99998.31;4929993;28;98215;-57
2022/02/18 06:11:32;;;;;;;;;;;;;;;15.81;42.08;100005.66;4932352;28;127164;-57
2022/02/18 06:13:58;;;;;;;;;;;;;;;15.80;42.07;100004.88;4942865;28;97811;-57
2022/02/18 06:16:24;;;;;;;;;;;;;;;15.80;42.08;100009.47;4939840;28;113426;-57
2022/02/18 06:18:50;;;;;;;;;;;;;;;15.81;41.96;100002.94;4925800;28;98489;-57
2022/02/18 06:21:16;;;;;;;;;;;;;;;15.82;41.91;99997.19;4921949;28;126013;-57
2022/02/18 06:23:42;;;;;;;;;;;;;;;15.86;42.05;100002.81;4922405;28;127616;-57
2022/02/18 06:26:08;;;;;;;;;;;;;;;15.88;41.85;100003.31;4925449;28;117567;-57
2022/02/18 06:28:34;;;;;;;;;;;;;;;15.88;42.10;100006.03;4933150;28;127169;-57
2022/02/18 06:31:00;;;;;;;;;;;;;;;15.88;42.18;100006.81;4925773;28;126388;-56
2022/02/18 06:33:25;;;;;;;;;;;;;;;15.91;41.80;100006.19;4942434;28;127615;-57
2022/02/18 06:35:51;;;;;;;;;;;;;;;15.94;41.88;100008.28;4939360;28;116760;-57
2022/02/18 06:38:17;;;;;;;;;;;;;;;15.99;41.84;100003.81;4941196;28;128675;-57
2022/02/18 06:40:43;;;;;;;;;;;;;;;16.03;41.98;100004.78;4939689;28;127598;-64
2022/02/18 06:43:09;;;;;;;;;;;;;;;16.08;41.92;100002.75;4922202;28;126711;-64
2022/02/18 06:45:35;;;;;;;;;;;;;;;16.13;41.69;99999.06;4938752;28;117022;-57
2022/02/18 06:48:01;;;;;;;;;;;;;;;16.19;41.57;100014.09;4941695;28;97968;-64
2022/02/18 06:50:27;;;;;;;;;;;;;;;16.27;41.90;100010.63;4940806;28;127763;-57
2022/02/18 06:52:53;;;;;;;;;;;;;;;16.35;41.68;99996.25;4905817;28;101678;-64
2022/02/18 06:55:24;;;;;;;;;;;;;;;16.43;41.71;99987.31;4941332;28;98102;-57
2022/02/18 06:57:50;;;;;;;;;;;;;;;16.49;41.74;99990.66;4931704;28;97902;-57
2022/02/18 07:00:16;;;;;;;;;;;;;;;16.54;41.67;99990.50;4940529;28;110206;-57
2022/02/18 07:02:42;;;;;;;;;;;;;;;16.62;41.58;99992.47;4940973;28;98232;-64
2022/02/18 07:05:09;;;;;;;;;;;;;;;16.68;41.58;99987.66;4941696;28;97905;-57
2022/02/18 07:07:35;;;;;;;;;;;;;;;16.73;41.46;99984.78;4938922;28;120405;-64
2022/02/18 07:10:05;;;;;;;;;;;;;;;16.78;41.65;99986.56;4940458;28;114496;-64
2022/02/18 07:12:31;;;;;;;;;;;;;;;16.81;41.84;99978.53;4922435;28;100793;-64
2022/02/18 07:14:57;;;;;;;;;;;;;;;16.87;41.70;99979.19;4941432;28;103574;-57
2022/02/18 07:17:23;;;;;;;;;;;;;;;16.91;41.79;99963.81;4935738;28;98516;-57
2022/02/18 07:19:49;;;;;;;;;;;;;;;16.94;41.85;99971.34;4921421;28;97815;-57
2022/02/18 07:22:15;;;;;;;;;;;;;;;16.99;41.78;99959.50;4921862;28;126573;-56
2022/02/18 07:24:42;;;;;;;;;;;;;;;17.02;42.04;99948.78;4931059;28;117212;-56
2022/02/18 07:27:08;;;;;;;;;;;;;;;17.06;41.91;99949.72;4919780;28;123001;-57
2022/02/18 07:29:34;;;;;;;;;;;;;;;17.16;41.75;99952.09;4926267;28;129505;-57
2022/02/18 07:32:01;;;;;;;;;;;;;;;17.35;41.83;99950.94;4920720;28;127776;-57
2022/02/18 07:34:26;;;;;;;;;;;;;;;17.56;41.51;99946.38;4921425;28;98122;-57
2022/02/18 07:36:52;;;;;;;;;;;;;;;17.77;41.26;99938.31;4919541;28;127001;-56
2022/02/18 07:39:18;;;;;;;;;;;;;;;17.86;41.48;99941.00;4939910;28;98315;-57
2022/02/18 07:41:44;;;;;;;;;;;;;;;17.90;41.51;99942.72;4914637;28;129212;-57
2022/02/18 07:44:10;;;;;;;;;;;;;;;17.93;41.65;99944.00;4935506;28;117308;-57
2022/02/18 07:46:36;;;;;;;;;;;;;;;17.96;41.55;99940.63;4939267;28;127478;-57
2022/02/18 07:49:02;;;;;;;;;;;;;;;17.98;41.65;99934.84;4939519;28;127986;-57
2022/02/18 07:51:28;;;;;;;;;;;;;;;18.03;41.84;99929.97;4936400;28;129218;-57
2022/02/18 07:53:54;;;;;;;;;;;;;;;18.10;41.69;99922.09;4939478;28;117315;-57
2022/02/18 07:56:20;;;;;;;;;;;;;;;18.16;41.87;99911.78;4937647;28;128288;-57
2022/02/18 07:58:46;;;;;;;;;;;;;;;18.29;41.63;99918.13;4920670;28;98967;-57
2022/02/18 08:01:17;;;;;;;;;;;;;;;18.38;41.54;99914.19;4919432;28;125354;-57
2022/02/18 08:03:47;;;;;;;;;;;;;;;18.57;41.63;99913.72;4921430;28;98018;-57
2022/02/18 08:06:13;;;;;;;;;;;;;;;18.77;41.38;99909.41;4907726;28;99034;-57
2022/02/18 08:08:42;;;;;;;;;;;;;;;18.96;41.30;99902.66;4935341;28;98965;-57
2022/02/18 08:11:09;;;;;;;;;;;;;;;19.19;41.15;99903.06;4942354;28;98526;-58
2022/02/18 08:13:35;;;;;;;;;;;;;;;19.41;41.09;99904.56;4930404;28;97910;-57
2022/02/18 08:16:01;;;;;;;;;;;;;;;19.64;40.89;99894.81;4921917;28;98057;-57
2022/02/18 08:18:27;;;;;;;;;;;;;;;19.84;40.72;99887.63;4935615;28;127850;-57
2022/02/18 08:20:53;;;;;;;;;;;;;;;20.03;40.91;99887.81;4944001;28;98202;-57
2022/02/18 08:23:19;;;;;;;;;;;;;;;20.32;40.42;99886.75;4942991;28;117800;-57
2022/02/18 08:25:45;;;;;;;;;;;;;;;20.54;40.55;99879.97;4954605;28;99286;-58
2022/02/18 08:28:11;;;;;;;;;;;;;;;20.74;40.51;99888.31;4930847;28;125908;-57
2022/02/18 08:30:37;;;;;;;;;;;;;;;20.90;40.49;99880.94;4941860;28;126230;-58
2022/02/18 08:33:03;;;;;;;;;;;;;;;21.04;40.47;99888.75;4942929;28;97924;-57
2022/02/18 08:35:29;;;;;;;;;;;;;;;21.17;40.39;99889.47;4942228;28;124886;-58
2022/02/18 08:37:55;;;;;;;;;;;;;;;21.27;40.53;99894.44;4935190;28;127566;-58
2022/02/18 08:40:21;;;;;;;;;;;;;;;21.41;40.51;99896.75;4924562;28;98532;-58
2022/02/18 08:42:48;;;;;;;;;;;;;;;21.52;40.65;99897.81;4922341;28;112350;-58
2022/02/18 08:45:13;;;;;;;;;;;;;;;21.62;40.47;99894.56;4922648;28;128606;-57
2022/02/18 08:47:39;;;;;;;;;;;;;;;21.76;40.45;99902.31;4924045;28;128331;-57
2022/02/18 08:50:09;;;;;;;;;;;;;;;21.95;40.41;99898.84;4921468;28;97928;-57
2022/02/18 08:52:35;;;;;;;;;;;;;;;22.17;40.38;99883.69;4935306;28;97918;-57
2022/02/18 08:55:01;;;;;;;;;;;;;;;22.39;40.28;99877.47;4942040;28;127860;-58
2022/02/18 08:57:27;;;;;;;;;;;;;;;22.60;40.18;99882.63;4941549;28;98603;-58
2022/02/18 08:59:53;;;;;;;;;;;;;;;22.77;40.17;99870.38;4973906;28;129323;-57
2022/02/18 09:02:19;;;;;;;;;;;;;;;22.73;40.48;99867.56;4940026;28;97947;-57
2022/02/18 09:04:45;;;;;;;;;;;;;;;22.74;40.77;99862.88;4922491;28;120012;-57
2022/02/18 09:07:11;;;;;;;;;;;;;;;22.70;40.68;99857.31;4923185;28;98850;-58
2022/02/18 09:09:37;;;;;;;;;;;;;;;22.63;40.97;99859.13;4923417;28;97749;-58
2022/02/18 09:12:03;;;;;;;;;;;;;;;22.52;40.87;99853.44;4922874;28;108205;-58
2022/02/18 09:14:29;;;;;;;;;;;;;;;22.54;40.93;99842.88;4922657;28;98703;-57
2022/02/18 09:16:55;;;;;;;;;;;;;;;22.72;40.58;99832.25;4920871;28;128306;-57
2022/02/18 09:19:21;;;;;;;;;;;;;;;22.99;40.36;99831.19;4936045;28;125699;-58
2022/02/18 09:21:47;;;;;;;;;;;;;;;23.08;40.39;99830.94;4922792;28;97959;-57
2022/02/18 09:24:14;;;;;;;;;;;;;;;23.33;40.26;99819.56;4923677;28;97808;-57
2022/02/18 09:26:40;;;;;;;;;;;;;;;23.76;39.90;99815.53;4922222;28;98974;-57
2022/02/18 09:29:06;;;;;;;;;;;;;;;24.27;39.56;99819.72;4938815;28;127521;-57
2022/02/18 09:31:32;;;;;;;;;;;;;;;24.59;39.32;99818.16;4942403;28;97849;-58
2022/02/18 09:33:58;;;;;;;;;;;;;;;24.95;39.19;99810.22;4931505;28;99173;-58
2022/02/18 09:36:24;;;;;;;;;;;;;;;25.03;39.51;99811.09;4940535;28;126804;-58
2022/02/18 09:38:50;;;;;;;;;;;;;;;25.09;39.36;99810.41;4941952;28;115594;-58
2022/02/18 09:41:16;;;;;;;;;;;;;;;24.68;39.86;99820.59;4924061;28;97899;-57
2022/02/18 09:43:42;;;;;;;;;;;;;;;24.31;40.25;99813.09;4920633;28;123971;-58
2022/02/18 09:46:08;;;;;;;;;;;;;;;24.10;40.40;99804.59;4924153;28;98791;-58
2022/02/18 09:48:35;;;;;;;;;;;;;;;23.81;40.66;99798.69;4924827;28;128161;-58
2022/02/18 09:51:01;;;;;;;;;;;;;;;23.47;40.63;99793.09;4922468;28;97885;-58
2022/02/18 09:53:27;;;;;;;;;;;;;;;23.16;40.83;99790.63;4922947;28;128894;-58
2022/02/18 09:55:54;;;;;;;;;;;;;;;22.93;40.74;99782.41;4939205;28;128476;-58
2022/02/18 09:58:22;;;;;;;;;;;;;;;22.81;40.64;99785.31;4969799;28;97880;-57
2022/02/18 10:00:51;;;;;;;;;;;;;;;22.70;40.57;99788.63;4942623;28;98889;-58
2022/02/18 10:03:17;;;;;;;;;;;;;;;22.48;40.79;99773.75;4942106;28;115280;-58
2022/02/18 10:05:43;;;;;;;;;;;;;;;22.23;40.89;99775.19;4940863;28;128312;-58
2022/02/18 10:08:10;;;;;;;;;;;;;;;22.06;40.96;99774.47;4939858;28;126992;-57
2022/02/18 10:10:38;;;;;;;;;;;;;;;21.93;40.93;99778.50;4942010;28;98190;-57
2022/02/18 10:13:04;;;;;;;;;;;;;;;21.78;41.19;99777.41;4941501;28;97904;-57
2022/02/18 10:15:42;;;;;;;;;;;;;;;21.58;41.31;99767.56;4941351;28;99171;-58
2022/02/18 10:18:09;;;;;;;;;;;;;;;21.41;41.31;99773.41;4941067;28;100092;-57
2022/02/18 10:20:36;;;;;;;;;;;;;;;21.25;41.47;99768.72;4934106;28;98004;-58
2022/02/18 10:23:04;;;;;;;;;;;;;;;21.11;41.47;99762.13;4937563;28;99473;-58
2022/02/18 10:25:32;;;;;;;;;;;;;;;20.96;41.67;99750.81;4921281;28;98272;-57
2022/02/18 10:27:57;;;;;;;;;;;;;;;20.83;41.68;99750.13;4921867;28;97929;-57
2022/02/18 10:30:28;;;;;;;;;;;;;;;20.71;41.73;99746.63;4921230;28;117142;-57
2022/02/18 10:32:54;;;;;;;;;;;;;;;20.57;41.87;99730.66;4929403;28;98502;-57
2022/02/18 10:35:31;;;;;;;;;;;;;;;20.46;41.86;99732.28;4941291;28;100184;-63
2022/02/18 10:37:57;;;;;;;;;;;;;;;20.37;41.86;99739.88;4939965;28;98628;-56
2022/02/18 10:40:23;;;;;;;;;;;;;;;20.26;42.02;99736.84;4940576;28;116694;-57
2022/02/18 10:42:52;;;;;;;;;;;;;;;20.17;42.08;99725.28;4941229;28;98501;-57
2022/02/18 10:45:19;;;;;;;;;;;;;;;20.09;42.15;99724.28;4941171;28;98833;-57
2022/02/18 10:47:46;;;;;;;;;;;;;;;20.02;42.09;99704.94;4925885;28;98200;-57
2022/02/18 10:50:26;;;;;;;;;;;;;;;19.97;42.16;99694.25;4940687;28;98171;-56
2022/02/18 10:53:11;;;;;;;;;;;;;;;19.90;42.21;99651.09;4941270;28;98356;-56
2022/02/18 10:55:51;;;;;;;;;;;;;;;19.85;42.13;99632.19;4940528;28;99075;-57
2022/02/18 10:58:34;;;;;;;;;;;;;;;19.78;41.94;99623.81;4939949;28;97795;-56
2022/02/18 11:01:04;;;;;;;;;;;;;;;19.72;42.43;99620.50;4941203;28;97919;-56
2022/02/18 11:03:30;;;;;;;;;;;;;;;19.68;42.20;99614.16;4939512;28;116879;-57
2022/02/18 11:06:08;;;;;;;;;;;;;;;19.64;42.26;99617.94;4940523;28;98773;-58
2022/02/18 11:08:34;;;;;;;;;;;;;;;19.58;42.40;99626.34;4968928;28;98466;-57
2022/02/18 11:11:11;;;;;;;;;;;;;;;19.54;42.45;99622.72;4940548;28;117516;-56
2022/02/18 11:13:40;;;;;;;;;;;;;;;19.49;42.63;99617.53;4940481;28;126175;-56
2022/02/18 11:16:09;;;;;;;;;;;;;;;19.46;42.63;99628.34;4933455;28;98350;-57
2022/02/18 11:18:37;;;;;;;;;;;;;;;19.40;42.45;99619.59;4920508;28;97960;-57
2022/02/18 11:21:02;;;;;;;;;;;;;;;19.35;42.64;99608.91;4951627;28;117158;-56
2022/02/18 11:23:29;;;;;;;;;;;;;;;19.34;42.71;99604.59;4921636;28;98857;-56
2022/02/18 11:25:56;;;;;;;;;;;;;;;19.32;42.64;99590.47;4949432;28;126342;-57
2022/02/18 11:28:22;;;;;;;;;;;;;;;19.37;42.76;99584.75;4962603;28;121390;-56
2022/02/18 11:30:48;;;;;;;;;;;;;;;19.46;42.57;99577.22;4940417;28;116977;-63
2022/02/18 11:33:19;;;;;;;;;;;;;;;19.55;42.44;99571.59;4961738;28;126943;-64
2022/02/18 11:36:08;;;;;;;;;;;;;;;19.63;42.16;99550.75;4951754;28;97925;-63
2022/02/18 11:39:02;;;;;;;;;;;;;;;19.76;42.14;99536.66;4922112;28;98005;-56
2022/02/18 11:41:53;;;;;;;;;;;;;;;19.88;42.14;99540.47;4915458;28;114979;-57
2022/02/18 11:44:29;;;;;;;;;;;;;;;19.97;41.90;99535.63;4930566;28;98098;-56
2022/02/18 11:47:13;;;;;;;;;;;;;;;20.07;42.13;99521.41;4967963;28;98024;-64
2022/02/18 11:49:40;;;;;;;;;;;;;;;20.15;42.04;99509.50;4921476;28;123691;-56
2022/02/18 11:52:10;;;;;;;;;;;;;;;20.37;41.93;99510.00;4922200;28;98066;-64
2022/02/18 11:54:36;;;;;;;;;;;;;;;20.53;41.70;99506.13;4921206;28;99855;-56
2022/02/18 11:57:07;;;;;;;;;;;;;;;20.57;41.75;99506.19;4922820;28;98960;-56
2022/02/18 11:59:42;;;;;;;;;;;;;;;20.53;42.06;99499.84;4921053;28;98213;-56
2022/02/18 12:02:09;;;;;;;;;;;;;;;20.50;42.05;99495.88;4922074;28;97852;-58
2022/02/18 12:04:39;;;;;;;;;;;;;;;20.49;42.22;99485.28;4939613;28;98950;-64
2022/02/18 12:07:17;;;;;;;;;;;;;;;20.39;42.38;99477.59;4939046;28;127025;-64
2022/02/18 12:09:49;;;;;;;;;;;;;;;20.30;42.46;99469.59;4972416;28;100155;-58
2022/02/18 12:12:27;;;;;;;;;;;;;;;20.22;42.76;99476.06;4958054;28;97844;-64
2022/02/18 12:14:56;;;;;;;;;;;;;;;20.16;42.66;99464.59;4951816;28;99468;-64
2022/02/18 12:17:26;;;;;;;;;;;;;;;20.10;42.75;99458.59;4922641;28;98279;-64
2022/02/18 12:19:53;;;;;;;;;;;;;;;20.03;42.93;99460.38;4930484;28;97907;-64
2022/02/18 12:22:35;;;;;;;;;;;;;;;19.95;42.84;99445.72;4940636;28;117599;-56
2022/02/18 12:25:01;;;;;;;;;;;;;;;19.85;42.96;99435.34;4940000;28;105345;-63
2022/02/18 12:27:29;;;;;;;;;;;;;;;19.77;42.98;99437.09;4937928;28;97897;-56
2022/02/18 12:29:55;;;;;;;;;;;;;;;19.71;43.36;99430.31;4938602;28;97858;-63
2022/02/18 12:32:21;;;;;;;;;;;;;;;19.63;43.32;99420.34;4937897;28;114539;-64
2022/02/18 12:35:02;;;;;;;;;;;;;;;19.57;43.76;99419.78;4939342;28;126842;-57
2022/02/18 12:37:28;;;;;;;;;;;;;;;19.49;43.51;99404.38;4939968;28;97871;-64
2022/02/18 12:39:54;;;;;;;;;;;;;;;19.43;43.77;99405.75;4927435;28;101989;-56